sensor_id;sensor_type;location;lat;lon;timestamp;P1;durP1;ratioP1;P2;durP2;ratioP2
19794;SDS011;10057;59.402;17.866;2022-08-21T00:02:19;5.93;;;1.10;;
19794;SDS011;10057;59.402;17.866;2022-08-21T00:04:49;6.73;;;0.87;;
19794;SDS011;10057;59.402;17.866;2022-08-21T00:07:23;4.00;;;1.00;;
19794;SDS011;10057;59.402;17.866;2022-08-21T00:09:50;4.90;;;0.90;;
19794;SDS011;10057;59.402;17.866;2022-08-21T00:12:21;7.93;;;1.10;;
19794;SDS011;10057;59.402;17.866;2022-08-21T00:14:48;6.27;;;0.90;;
19794;SDS011;10057;59.402;17.866;2022-08-21T00:17:19;7.00;;;0.90;;
19794;SDS011;10057;59.402;17.866;2022-08-21T00:19:46;6.63;;;0.90;;
19794;SDS011;10057;59.402;17.866;2022-08-21T00:22:13;4.70;;;1.23;;
19794;SDS011;10057;59.402;17.866;2022-08-21T00:24:40;2.93;;;0.80;;
19794;SDS011;10057;59.402;17.866;2022-08-21T00:27:06;4.90;;;0.93;;
19794;SDS011;10057;59.402;17.866;2022-08-21T00:29:33;5.90;;;1.13;;
19794;SDS011;10057;59.402;17.866;2022-08-21T00:32:00;9.87;;;1.00;;
19794;SDS011;10057;59.402;17.866;2022-08-21T00:34:27;5.60;;;1.10;;
19794;SDS011;10057;59.402;17.866;2022-08-21T00:36:54;4.10;;;0.97;;
19794;SDS011;10057;59.402;17.866;2022-08-21T00:39:20;3.60;;;0.90;;
19794;SDS011;10057;59.402;17.866;2022-08-21T00:41:47;4.53;;;1.20;;
19794;SDS011;10057;59.402;17.866;2022-08-21T00:44:14;6.30;;;1.30;;
19794;SDS011;10057;59.402;17.866;2022-08-21T00:46:42;5.73;;;1.10;;
19794;SDS011;10057;59.402;17.866;2022-08-21T00:49:09;4.20;;;0.87;;
19794;SDS011;10057;59.402;17.866;2022-08-21T00:51:39;3.77;;;1.10;;
19794;SDS011;10057;59.402;17.866;2022-08-21T00:54:13;5.10;;;0.90;;
19794;SDS011;10057;59.402;17.866;2022-08-21T00:56:48;5.73;;;1.17;;
19794;SDS011;10057;59.402;17.866;2022-08-21T00:59:20;3.03;;;1.10;;
19794;SDS011;10057;59.402;17.866;2022-08-21T01:01:48;6.37;;;1.03;;
19794;SDS011;10057;59.402;17.866;2022-08-21T01:04:17;3.57;;;1.10;;
19794;SDS011;10057;59.402;17.866;2022-08-21T01:06:45;6.17;;;1.43;;
19794;SDS011;10057;59.402;17.866;2022-08-21T01:09:12;8.90;;;1.20;;
19794;SDS011;10057;59.402;17.866;2022-08-21T01:11:40;3.17;;;0.97;;
19794;SDS011;10057;59.402;17.866;2022-08-21T01:14:11;4.67;;;1.20;;
19794;SDS011;10057;59.402;17.866;2022-08-21T01:16:40;5.77;;;1.07;;
19794;SDS011;10057;59.402;17.866;2022-08-21T01:19:10;6.67;;;1.27;;
19794;SDS011;10057;59.402;17.866;2022-08-21T01:21:37;4.57;;;1.13;;
19794;SDS011;10057;59.402;17.866;2022-08-21T01:24:04;3.87;;;0.90;;
19794;SDS011;10057;59.402;17.866;2022-08-21T01:26:33;4.90;;;1.07;;
19794;SDS011;10057;59.402;17.866;2022-08-21T01:29:03;5.17;;;1.00;;
19794;SDS011;10057;59.402;17.866;2022-08-21T01:31:33;7.13;;;1.23;;
19794;SDS011;10057;59.402;17.866;2022-08-21T01:34:00;7.10;;;1.13;;
19794;SDS011;10057;59.402;17.866;2022-08-21T01:36:27;5.17;;;1.03;;
19794;SDS011;10057;59.402;17.866;2022-08-21T01:38:54;4.17;;;1.10;;
19794;SDS011;10057;59.402;17.866;2022-08-21T01:41:21;5.27;;;1.20;;
19794;SDS011;10057;59.402;17.866;2022-08-21T01:43:50;3.60;;;1.00;;
19794;SDS011;10057;59.402;17.866;2022-08-21T01:46:17;4.77;;;0.83;;
19794;SDS011;10057;59.402;17.866;2022-08-21T01:48:44;4.53;;;1.37;;
19794;SDS011;10057;59.402;17.866;2022-08-21T01:51:11;9.47;;;1.80;;
19794;SDS011;10057;59.402;17.866;2022-08-21T01:53:38;6.97;;;1.30;;
19794;SDS011;10057;59.402;17.866;2022-08-21T01:56:06;6.53;;;1.37;;
19794;SDS011;10057;59.402;17.866;2022-08-21T01:58:41;3.67;;;1.27;;
19794;SDS011;10057;59.402;17.866;2022-08-21T02:01:10;10.20;;;1.47;;
19794;SDS011;10057;59.402;17.866;2022-08-21T02:03:40;5.77;;;1.30;;
19794;SDS011;10057;59.402;17.866;2022-08-21T02:06:07;7.37;;;1.40;;
19794;SDS011;10057;59.402;17.866;2022-08-21T02:08:38;2.10;;;1.10;;
19794;SDS011;10057;59.402;17.866;2022-08-21T02:11:04;8.30;;;1.30;;
19794;SDS011;10057;59.402;17.866;2022-08-21T02:13:31;5.53;;;1.30;;
19794;SDS011;10057;59.402;17.866;2022-08-21T02:15:58;3.80;;;1.27;;
19794;SDS011;10057;59.402;17.866;2022-08-21T02:18:24;5.63;;;1.17;;
19794;SDS011;10057;59.402;17.866;2022-08-21T02:20:52;9.57;;;1.50;;
19794;SDS011;10057;59.402;17.866;2022-08-21T02:23:22;6.50;;;1.30;;
19794;SDS011;10057;59.402;17.866;2022-08-21T02:25:53;3.20;;;1.30;;
19794;SDS011;10057;59.402;17.866;2022-08-21T02:28:21;6.07;;;1.20;;
19794;SDS011;10057;59.402;17.866;2022-08-21T02:30:47;5.77;;;1.23;;
19794;SDS011;10057;59.402;17.866;2022-08-21T02:33:14;4.87;;;1.27;;
19794;SDS011;10057;59.402;17.866;2022-08-21T02:35:43;8.80;;;1.40;;
19794;SDS011;10057;59.402;17.866;2022-08-21T02:38:12;4.63;;;1.30;;
19794;SDS011;10057;59.402;17.866;2022-08-21T02:40:42;7.53;;;1.20;;
19794;SDS011;10057;59.402;17.866;2022-08-21T02:43:16;4.70;;;1.37;;
19794;SDS011;10057;59.402;17.866;2022-08-21T02:45:44;6.00;;;1.20;;
19794;SDS011;10057;59.402;17.866;2022-08-21T02:48:13;4.47;;;1.17;;
19794;SDS011;10057;59.402;17.866;2022-08-21T02:50:43;4.10;;;1.20;;
19794;SDS011;10057;59.402;17.866;2022-08-21T02:53:12;9.00;;;1.60;;
19794;SDS011;10057;59.402;17.866;2022-08-21T02:55:45;8.07;;;1.50;;
19794;SDS011;10057;59.402;17.866;2022-08-21T02:58:15;3.73;;;1.10;;
19794;SDS011;10057;59.402;17.866;2022-08-21T03:00:46;4.27;;;1.20;;
19794;SDS011;10057;59.402;17.866;2022-08-21T03:03:13;8.40;;;1.53;;
19794;SDS011;10057;59.402;17.866;2022-08-21T03:05:41;7.33;;;1.33;;
19794;SDS011;10057;59.402;17.866;2022-08-21T03:08:09;10.27;;;1.43;;
19794;SDS011;10057;59.402;17.866;2022-08-21T03:10:38;4.43;;;1.50;;
19794;SDS011;10057;59.402;17.866;2022-08-21T03:13:07;3.47;;;1.30;;
19794;SDS011;10057;59.402;17.866;2022-08-21T03:15:34;7.43;;;1.40;;
19794;SDS011;10057;59.402;17.866;2022-08-21T03:18:02;7.77;;;1.33;;
19794;SDS011;10057;59.402;17.866;2022-08-21T03:20:29;6.43;;;1.30;;
19794;SDS011;10057;59.402;17.866;2022-08-21T03:22:58;4.37;;;1.30;;
19794;SDS011;10057;59.402;17.866;2022-08-21T03:25:26;5.30;;;1.30;;
19794;SDS011;10057;59.402;17.866;2022-08-21T03:28:07;8.37;;;1.33;;
19794;SDS011;10057;59.402;17.866;2022-08-21T03:30:38;5.77;;;1.53;;
19794;SDS011;10057;59.402;17.866;2022-08-21T03:33:05;6.00;;;1.40;;
19794;SDS011;10057;59.402;17.866;2022-08-21T03:35:32;9.50;;;1.60;;
19794;SDS011;10057;59.402;17.866;2022-08-21T03:37:59;7.47;;;1.10;;
19794;SDS011;10057;59.402;17.866;2022-08-21T03:40:25;6.97;;;1.30;;
19794;SDS011;10057;59.402;17.866;2022-08-21T03:42:52;6.33;;;1.67;;
19794;SDS011;10057;59.402;17.866;2022-08-21T03:45:19;4.10;;;1.57;;
19794;SDS011;10057;59.402;17.866;2022-08-21T03:48:00;13.73;;;1.30;;
19794;SDS011;10057;59.402;17.866;2022-08-21T03:50:30;4.90;;;1.30;;
19794;SDS011;10057;59.402;17.866;2022-08-21T03:52:59;7.60;;;1.50;;
19794;SDS011;10057;59.402;17.866;2022-08-21T03:55:27;6.20;;;1.50;;
19794;SDS011;10057;59.402;17.866;2022-08-21T03:57:54;4.33;;;1.27;;
19794;SDS011;10057;59.402;17.866;2022-08-21T04:00:22;11.37;;;1.50;;
19794;SDS011;10057;59.402;17.866;2022-08-21T04:02:49;6.87;;;1.47;;
19794;SDS011;10057;59.402;17.866;2022-08-21T04:05:17;6.07;;;1.37;;
19794;SDS011;10057;59.402;17.866;2022-08-21T04:07:54;7.13;;;1.47;;
19794;SDS011;10057;59.402;17.866;2022-08-21T04:10:22;9.30;;;1.70;;
19794;SDS011;10057;59.402;17.866;2022-08-21T04:12:51;4.37;;;1.40;;
19794;SDS011;10057;59.402;17.866;2022-08-21T04:15:18;4.37;;;1.53;;
19794;SDS011;10057;59.402;17.866;2022-08-21T04:17:46;9.73;;;1.47;;
19794;SDS011;10057;59.402;17.866;2022-08-21T04:20:15;6.43;;;1.30;;
19794;SDS011;10057;59.402;17.866;2022-08-21T04:22:42;6.03;;;1.23;;
19794;SDS011;10057;59.402;17.866;2022-08-21T04:25:11;5.27;;;1.40;;
19794;SDS011;10057;59.402;17.866;2022-08-21T04:27:39;10.13;;;1.57;;
19794;SDS011;10057;59.402;17.866;2022-08-21T04:30:07;3.60;;;1.23;;
19794;SDS011;10057;59.402;17.866;2022-08-21T04:32:35;4.73;;;1.30;;
19794;SDS011;10057;59.402;17.866;2022-08-21T04:35:05;6.33;;;1.90;;
19794;SDS011;10057;59.402;17.866;2022-08-21T04:37:34;6.93;;;1.60;;
19794;SDS011;10057;59.402;17.866;2022-08-21T04:40:08;4.10;;;1.23;;
19794;SDS011;10057;59.402;17.866;2022-08-21T04:42:43;4.73;;;1.40;;
19794;SDS011;10057;59.402;17.866;2022-08-21T04:45:16;5.67;;;1.40;;
19794;SDS011;10057;59.402;17.866;2022-08-21T04:47:52;8.47;;;1.47;;
19794;SDS011;10057;59.402;17.866;2022-08-21T04:50:21;5.33;;;1.40;;
19794;SDS011;10057;59.402;17.866;2022-08-21T04:52:51;6.30;;;1.40;;
19794;SDS011;10057;59.402;17.866;2022-08-21T04:55:18;6.53;;;1.50;;
19794;SDS011;10057;59.402;17.866;2022-08-21T04:57:46;7.10;;;1.50;;
19794;SDS011;10057;59.402;17.866;2022-08-21T05:00:15;14.93;;;1.77;;
19794;SDS011;10057;59.402;17.866;2022-08-21T05:02:45;5.30;;;1.40;;
19794;SDS011;10057;59.402;17.866;2022-08-21T05:05:14;6.90;;;1.53;;
19794;SDS011;10057;59.402;17.866;2022-08-21T05:07:42;7.90;;;1.40;;
19794;SDS011;10057;59.402;17.866;2022-08-21T05:10:10;8.70;;;1.47;;
19794;SDS011;10057;59.402;17.866;2022-08-21T05:12:41;5.30;;;1.33;;
19794;SDS011;10057;59.402;17.866;2022-08-21T05:15:09;8.37;;;1.70;;
19794;SDS011;10057;59.402;17.866;2022-08-21T05:17:41;9.70;;;1.63;;
19794;SDS011;10057;59.402;17.866;2022-08-21T05:20:10;6.77;;;1.40;;
19794;SDS011;10057;59.402;17.866;2022-08-21T05:22:38;8.33;;;1.93;;
19794;SDS011;10057;59.402;17.866;2022-08-21T05:25:06;8.47;;;2.00;;
19794;SDS011;10057;59.402;17.866;2022-08-21T05:27:36;7.97;;;1.50;;
19794;SDS011;10057;59.402;17.866;2022-08-21T05:30:06;10.37;;;1.73;;
19794;SDS011;10057;59.402;17.866;2022-08-21T05:32:34;6.30;;;1.50;;
19794;SDS011;10057;59.402;17.866;2022-08-21T05:35:01;8.63;;;1.80;;
19794;SDS011;10057;59.402;17.866;2022-08-21T05:37:30;9.73;;;1.67;;
19794;SDS011;10057;59.402;17.866;2022-08-21T05:39:57;5.13;;;1.60;;
19794;SDS011;10057;59.402;17.866;2022-08-21T05:42:43;4.70;;;1.40;;
19794;SDS011;10057;59.402;17.866;2022-08-21T05:45:20;5.00;;;1.63;;
19794;SDS011;10057;59.402;17.866;2022-08-21T05:48:10;8.43;;;1.53;;
19794;SDS011;10057;59.402;17.866;2022-08-21T05:50:37;9.10;;;1.77;;
19794;SDS011;10057;59.402;17.866;2022-08-21T05:53:05;9.93;;;1.70;;
19794;SDS011;10057;59.402;17.866;2022-08-21T05:55:33;7.57;;;1.60;;
19794;SDS011;10057;59.402;17.866;2022-08-21T05:57:59;5.30;;;1.57;;
19794;SDS011;10057;59.402;17.866;2022-08-21T06:00:26;6.97;;;1.70;;
19794;SDS011;10057;59.402;17.866;2022-08-21T06:02:53;6.53;;;1.60;;
19794;SDS011;10057;59.402;17.866;2022-08-21T06:05:20;13.70;;;1.93;;
19794;SDS011;10057;59.402;17.866;2022-08-21T06:08:02;7.83;;;1.67;;
19794;SDS011;10057;59.402;17.866;2022-08-21T06:10:30;7.87;;;1.70;;
19794;SDS011;10057;59.402;17.866;2022-08-21T06:12:57;5.30;;;1.60;;
19794;SDS011;10057;59.402;17.866;2022-08-21T06:15:24;10.57;;;1.70;;
19794;SDS011;10057;59.402;17.866;2022-08-21T06:17:51;6.83;;;1.47;;
19794;SDS011;10057;59.402;17.866;2022-08-21T06:20:19;7.53;;;1.50;;
19794;SDS011;10057;59.402;17.866;2022-08-21T06:22:45;12.13;;;1.70;;
19794;SDS011;10057;59.402;17.866;2022-08-21T06:25:12;6.57;;;1.40;;
19794;SDS011;10057;59.402;17.866;2022-08-21T06:27:39;8.40;;;1.50;;
19794;SDS011;10057;59.402;17.866;2022-08-21T06:30:06;9.47;;;1.87;;
19794;SDS011;10057;59.402;17.866;2022-08-21T06:32:33;10.40;;;1.90;;
19794;SDS011;10057;59.402;17.866;2022-08-21T06:35:00;7.20;;;1.93;;
19794;SDS011;10057;59.402;17.866;2022-08-21T06:37:27;8.67;;;2.03;;
19794;SDS011;10057;59.402;17.866;2022-08-21T06:39:54;9.70;;;1.63;;
19794;SDS011;10057;59.402;17.866;2022-08-21T06:42:21;4.50;;;1.40;;
19794;SDS011;10057;59.402;17.866;2022-08-21T06:44:53;7.53;;;2.07;;
19794;SDS011;10057;59.402;17.866;2022-08-21T06:47:20;12.37;;;1.80;;
19794;SDS011;10057;59.402;17.866;2022-08-21T06:49:47;11.97;;;1.83;;
19794;SDS011;10057;59.402;17.866;2022-08-21T06:52:14;6.43;;;1.63;;
19794;SDS011;10057;59.402;17.866;2022-08-21T06:54:41;6.83;;;1.53;;
19794;SDS011;10057;59.402;17.866;2022-08-21T06:57:08;5.90;;;1.73;;
19794;SDS011;10057;59.402;17.866;2022-08-21T06:59:35;8.77;;;1.70;;
19794;SDS011;10057;59.402;17.866;2022-08-21T07:02:01;10.10;;;1.57;;
19794;SDS011;10057;59.402;17.866;2022-08-21T07:04:29;7.97;;;1.57;;
19794;SDS011;10057;59.402;17.866;2022-08-21T07:06:56;6.67;;;1.20;;
19794;SDS011;10057;59.402;17.866;2022-08-21T07:09:22;8.47;;;1.83;;
19794;SDS011;10057;59.402;17.866;2022-08-21T07:11:51;10.43;;;1.77;;
19794;SDS011;10057;59.402;17.866;2022-08-21T07:14:19;7.90;;;1.77;;
19794;SDS011;10057;59.402;17.866;2022-08-21T07:16:46;8.93;;;1.60;;
19794;SDS011;10057;59.402;17.866;2022-08-21T07:19:13;6.93;;;1.90;;
19794;SDS011;10057;59.402;17.866;2022-08-21T07:21:40;9.20;;;1.67;;
19794;SDS011;10057;59.402;17.866;2022-08-21T07:24:07;6.57;;;1.40;;
19794;SDS011;10057;59.402;17.866;2022-08-21T07:26:34;7.80;;;2.00;;
19794;SDS011;10057;59.402;17.866;2022-08-21T07:29:01;6.67;;;1.50;;
19794;SDS011;10057;59.402;17.866;2022-08-21T07:31:27;6.97;;;1.60;;
19794;SDS011;10057;59.402;17.866;2022-08-21T07:33:54;6.23;;;1.57;;
19794;SDS011;10057;59.402;17.866;2022-08-21T07:36:21;11.53;;;1.60;;
19794;SDS011;10057;59.402;17.866;2022-08-21T07:38:48;11.13;;;1.90;;
19794;SDS011;10057;59.402;17.866;2022-08-21T07:41:19;7.70;;;1.30;;
19794;SDS011;10057;59.402;17.866;2022-08-21T07:43:51;7.87;;;2.03;;
19794;SDS011;10057;59.402;17.866;2022-08-21T07:46:18;8.23;;;1.80;;
19794;SDS011;10057;59.402;17.866;2022-08-21T07:48:46;5.57;;;1.80;;
19794;SDS011;10057;59.402;17.866;2022-08-21T07:51:14;4.20;;;1.50;;
19794;SDS011;10057;59.402;17.866;2022-08-21T07:53:47;8.23;;;1.53;;
19794;SDS011;10057;59.402;17.866;2022-08-21T07:56:16;10.70;;;1.50;;
19794;SDS011;10057;59.402;17.866;2022-08-21T07:58:43;5.50;;;1.40;;
19794;SDS011;10057;59.402;17.866;2022-08-21T08:01:09;11.63;;;1.60;;
19794;SDS011;10057;59.402;17.866;2022-08-21T08:03:37;5.30;;;1.50;;
19794;SDS011;10057;59.402;17.866;2022-08-21T08:06:05;9.30;;;1.43;;
19794;SDS011;10057;59.402;17.866;2022-08-21T08:08:34;5.97;;;1.43;;
19794;SDS011;10057;59.402;17.866;2022-08-21T08:11:03;9.60;;;1.77;;
19794;SDS011;10057;59.402;17.866;2022-08-21T08:13:30;7.20;;;1.60;;
19794;SDS011;10057;59.402;17.866;2022-08-21T08:15:57;8.00;;;1.43;;
19794;SDS011;10057;59.402;17.866;2022-08-21T08:18:24;6.33;;;1.60;;
19794;SDS011;10057;59.402;17.866;2022-08-21T08:20:51;7.37;;;1.60;;
19794;SDS011;10057;59.402;17.866;2022-08-21T08:23:18;9.10;;;1.57;;
19794;SDS011;10057;59.402;17.866;2022-08-21T08:25:45;7.20;;;1.40;;
19794;SDS011;10057;59.402;17.866;2022-08-21T08:28:11;8.33;;;1.47;;
19794;SDS011;10057;59.402;17.866;2022-08-21T08:30:43;13.63;;;1.70;;
19794;SDS011;10057;59.402;17.866;2022-08-21T08:33:11;7.87;;;1.50;;
19794;SDS011;10057;59.402;17.866;2022-08-21T08:35:39;6.17;;;1.43;;
19794;SDS011;10057;59.402;17.866;2022-08-21T08:38:08;9.30;;;1.70;;
19794;SDS011;10057;59.402;17.866;2022-08-21T08:40:37;6.57;;;1.40;;
19794;SDS011;10057;59.402;17.866;2022-08-21T08:43:11;4.80;;;1.63;;
19794;SDS011;10057;59.402;17.866;2022-08-21T08:45:40;7.17;;;1.40;;
19794;SDS011;10057;59.402;17.866;2022-08-21T08:48:13;6.13;;;1.50;;
19794;SDS011;10057;59.402;17.866;2022-08-21T08:50:49;5.67;;;1.60;;
19794;SDS011;10057;59.402;17.866;2022-08-21T08:53:34;8.40;;;1.83;;
19794;SDS011;10057;59.402;17.866;2022-08-21T08:56:14;7.70;;;1.63;;
19794;SDS011;10057;59.402;17.866;2022-08-21T08:58:41;7.47;;;1.57;;
19794;SDS011;10057;59.402;17.866;2022-08-21T09:01:13;9.60;;;1.30;;
19794;SDS011;10057;59.402;17.866;2022-08-21T09:03:44;7.43;;;1.47;;
19794;SDS011;10057;59.402;17.866;2022-08-21T09:06:28;8.00;;;1.50;;
19794;SDS011;10057;59.402;17.866;2022-08-21T09:14:54;9.23;;;1.40;;
19794;SDS011;10057;59.402;17.866;2022-08-21T09:20:55;13.13;;;1.67;;
19794;SDS011;10057;59.402;17.866;2022-08-21T09:26:49;7.93;;;1.50;;
19794;SDS011;10057;59.402;17.866;2022-08-21T09:29:33;7.93;;;1.53;;
19794;SDS011;10057;59.402;17.866;2022-08-21T09:32:04;6.90;;;1.43;;
19794;SDS011;10057;59.402;17.866;2022-08-21T09:34:55;5.97;;;1.27;;
19794;SDS011;10057;59.402;17.866;2022-08-21T09:37:23;4.60;;;1.37;;
19794;SDS011;10057;59.402;17.866;2022-08-21T09:39:51;5.13;;;1.40;;
19794;SDS011;10057;59.402;17.866;2022-08-21T09:42:26;5.07;;;1.20;;
19794;SDS011;10057;59.402;17.866;2022-08-21T09:45:09;7.10;;;1.30;;
19794;SDS011;10057;59.402;17.866;2022-08-21T09:47:41;5.97;;;1.40;;
19794;SDS011;10057;59.402;17.866;2022-08-21T09:50:11;8.17;;;1.37;;
19794;SDS011;10057;59.402;17.866;2022-08-21T09:52:58;4.87;;;1.40;;
19794;SDS011;10057;59.402;17.866;2022-08-21T09:55:37;4.53;;;1.23;;
19794;SDS011;10057;59.402;17.866;2022-08-21T09:58:34;8.27;;;1.30;;
19794;SDS011;10057;59.402;17.866;2022-08-21T10:01:03;7.03;;;1.23;;
19794;SDS011;10057;59.402;17.866;2022-08-21T10:03:31;5.77;;;1.30;;
19794;SDS011;10057;59.402;17.866;2022-08-21T10:05:59;7.63;;;1.43;;
19794;SDS011;10057;59.402;17.866;2022-08-21T10:08:35;6.77;;;1.47;;
19794;SDS011;10057;59.402;17.866;2022-08-21T10:11:07;7.00;;;1.30;;
19794;SDS011;10057;59.402;17.866;2022-08-21T10:16:25;7.57;;;1.23;;
19794;SDS011;10057;59.402;17.866;2022-08-21T10:35:24;2.97;;;1.00;;
19794;SDS011;10057;59.402;17.866;2022-08-21T10:47:18;3.20;;;0.90;;
19794;SDS011;10057;59.402;17.866;2022-08-21T10:49:58;4.20;;;1.17;;
19794;SDS011;10057;59.402;17.866;2022-08-21T10:52:39;4.87;;;1.13;;
19794;SDS011;10057;59.402;17.866;2022-08-21T10:55:26;3.00;;;1.17;;
19794;SDS011;10057;59.402;17.866;2022-08-21T10:58:10;4.20;;;1.10;;
19794;SDS011;10057;59.402;17.866;2022-08-21T11:00:49;4.80;;;1.10;;
19794;SDS011;10057;59.402;17.866;2022-08-21T11:03:27;6.30;;;1.30;;
19794;SDS011;10057;59.402;17.866;2022-08-21T11:06:06;6.60;;;1.33;;
19794;SDS011;10057;59.402;17.866;2022-08-21T11:08:58;4.97;;;1.30;;
19794;SDS011;10057;59.402;17.866;2022-08-21T11:15:03;5.43;;;1.20;;
19794;SDS011;10057;59.402;17.866;2022-08-21T11:18:39;6.73;;;1.60;;
19794;SDS011;10057;59.402;17.866;2022-08-21T11:26:33;7.37;;;1.50;;
19794;SDS011;10057;59.402;17.866;2022-08-21T11:32:20;4.47;;;1.23;;
19794;SDS011;10057;59.402;17.866;2022-08-21T11:43:57;3.30;;;1.15;;
19794;SDS011;10057;59.402;17.866;2022-08-21T11:46:44;4.37;;;1.10;;
19794;SDS011;10057;59.402;17.866;2022-08-21T11:55:12;7.73;;;1.47;;
19794;SDS011;10057;59.402;17.866;2022-08-21T11:57:54;3.90;;;1.23;;
19794;SDS011;10057;59.402;17.866;2022-08-21T12:03:52;4.03;;;1.03;;
19794;SDS011;10057;59.402;17.866;2022-08-21T12:08:41;4.95;;;1.02;;
19794;SDS011;10057;59.402;17.866;2022-08-21T12:16:43;6.07;;;0.80;;
19794;SDS011;10057;59.402;17.866;2022-08-21T12:19:35;3.17;;;0.88;;
19794;SDS011;10057;59.402;17.866;2022-08-21T12:22:13;2.72;;;0.70;;
19794;SDS011;10057;59.402;17.866;2022-08-21T12:24:42;5.53;;;0.90;;
19794;SDS011;10057;59.402;17.866;2022-08-21T12:27:29;2.17;;;0.80;;
19794;SDS011;10057;59.402;17.866;2022-08-21T12:30:49;1.73;;;0.73;;
19794;SDS011;10057;59.402;17.866;2022-08-21T12:39:11;2.63;;;0.70;;
19794;SDS011;10057;59.402;17.866;2022-08-21T12:41:49;1.75;;;0.60;;
19794;SDS011;10057;59.402;17.866;2022-08-21T12:44:28;1.27;;;0.63;;
19794;SDS011;10057;59.402;17.866;2022-08-21T12:47:03;2.17;;;0.65;;
19794;SDS011;10057;59.402;17.866;2022-08-21T12:49:36;2.90;;;0.82;;
19794;SDS011;10057;59.402;17.866;2022-08-21T12:52:16;1.52;;;0.77;;
19794;SDS011;10057;59.402;17.866;2022-08-21T12:54:48;1.13;;;0.50;;
19794;SDS011;10057;59.402;17.866;2022-08-21T12:57:19;2.03;;;0.68;;
19794;SDS011;10057;59.402;17.866;2022-08-21T12:59:53;1.65;;;0.70;;
19794;SDS011;10057;59.402;17.866;2022-08-21T13:02:36;3.00;;;0.70;;
19794;SDS011;10057;59.402;17.866;2022-08-21T13:05:06;5.20;;;0.90;;
19794;SDS011;10057;59.402;17.866;2022-08-21T13:07:42;1.67;;;0.70;;
19794;SDS011;10057;59.402;17.866;2022-08-21T13:10:22;5.05;;;0.77;;
19794;SDS011;10057;59.402;17.866;2022-08-21T13:12:56;5.13;;;0.90;;
19794;SDS011;10057;59.402;17.866;2022-08-21T13:15:30;1.90;;;1.08;;
19794;SDS011;10057;59.402;17.866;2022-08-21T13:17:59;1.70;;;0.75;;
19794;SDS011;10057;59.402;17.866;2022-08-21T13:20:31;2.47;;;0.70;;
19794;SDS011;10057;59.402;17.866;2022-08-21T13:23:01;4.55;;;0.93;;
19794;SDS011;10057;59.402;17.866;2022-08-21T13:25:30;1.52;;;0.70;;
19794;SDS011;10057;59.402;17.866;2022-08-21T13:28:06;5.80;;;0.80;;
19794;SDS011;10057;59.402;17.866;2022-08-21T13:30:44;2.00;;;0.75;;
19794;SDS011;10057;59.402;17.866;2022-08-21T13:33:14;2.35;;;1.00;;
19794;SDS011;10057;59.402;17.866;2022-08-21T13:38:29;4.43;;;0.93;;
19794;SDS011;10057;59.402;17.866;2022-08-21T13:41:01;2.17;;;0.77;;
19794;SDS011;10057;59.402;17.866;2022-08-21T13:43:35;4.22;;;0.70;;
19794;SDS011;10057;59.402;17.866;2022-08-21T13:46:06;3.95;;;0.80;;
19794;SDS011;10057;59.402;17.866;2022-08-21T13:48:36;2.05;;;0.70;;
19794;SDS011;10057;59.402;17.866;2022-08-21T13:51:03;4.63;;;0.93;;
19794;SDS011;10057;59.402;17.866;2022-08-21T13:53:32;1.58;;;0.70;;
19794;SDS011;10057;59.402;17.866;2022-08-21T13:56:01;3.50;;;0.80;;
19794;SDS011;10057;59.402;17.866;2022-08-21T13:58:41;1.88;;;0.70;;
19794;SDS011;10057;59.402;17.866;2022-08-21T14:03:49;1.52;;;0.80;;
19794;SDS011;10057;59.402;17.866;2022-08-21T14:06:19;2.05;;;0.80;;
19794;SDS011;10057;59.402;17.866;2022-08-21T14:08:50;1.50;;;0.70;;
19794;SDS011;10057;59.402;17.866;2022-08-21T14:11:21;1.90;;;0.82;;
19794;SDS011;10057;59.402;17.866;2022-08-21T14:13:49;3.60;;;0.85;;
19794;SDS011;10057;59.402;17.866;2022-08-21T14:16:24;3.10;;;1.00;;
19794;SDS011;10057;59.402;17.866;2022-08-21T14:21:35;3.03;;;0.82;;
19794;SDS011;10057;59.402;17.866;2022-08-21T14:24:40;2.22;;;0.88;;
19794;SDS011;10057;59.402;17.866;2022-08-21T14:27:06;2.60;;;0.60;;
19794;SDS011;10057;59.402;17.866;2022-08-21T14:29:38;2.65;;;0.73;;
19794;SDS011;10057;59.402;17.866;2022-08-21T14:32:11;3.00;;;0.80;;
19794;SDS011;10057;59.402;17.866;2022-08-21T14:35:02;2.35;;;0.60;;
19794;SDS011;10057;59.402;17.866;2022-08-21T14:37:28;5.15;;;0.80;;
19794;SDS011;10057;59.402;17.866;2022-08-21T14:39:55;3.72;;;0.60;;
19794;SDS011;10057;59.402;17.866;2022-08-21T14:42:22;2.35;;;0.80;;
19794;SDS011;10057;59.402;17.866;2022-08-21T14:44:50;1.85;;;0.50;;
19794;SDS011;10057;59.402;17.866;2022-08-21T14:47:17;2.63;;;0.73;;
19794;SDS011;10057;59.402;17.866;2022-08-21T14:49:47;2.70;;;0.88;;
19794;SDS011;10057;59.402;17.866;2022-08-21T14:52:14;1.95;;;0.68;;
19794;SDS011;10057;59.402;17.866;2022-08-21T14:54:40;1.30;;;0.80;;
19794;SDS011;10057;59.402;17.866;2022-08-21T14:57:08;1.27;;;0.60;;
19794;SDS011;10057;59.402;17.866;2022-08-21T14:59:38;2.92;;;0.68;;
19794;SDS011;10057;59.402;17.866;2022-08-21T15:02:05;1.60;;;0.65;;
19794;SDS011;10057;59.402;17.866;2022-08-21T15:04:33;1.38;;;0.70;;
19794;SDS011;10057;59.402;17.866;2022-08-21T15:07:00;2.15;;;0.60;;
19794;SDS011;10057;59.402;17.866;2022-08-21T15:09:27;2.15;;;0.60;;
19794;SDS011;10057;59.402;17.866;2022-08-21T15:11:55;1.45;;;0.60;;
19794;SDS011;10057;59.402;17.866;2022-08-21T15:14:24;2.08;;;0.80;;
19794;SDS011;10057;59.402;17.866;2022-08-21T15:16:53;1.10;;;0.60;;
19794;SDS011;10057;59.402;17.866;2022-08-21T15:19:19;2.35;;;0.60;;
19794;SDS011;10057;59.402;17.866;2022-08-21T15:21:47;1.25;;;0.75;;
19794;SDS011;10057;59.402;17.866;2022-08-21T15:24:14;1.95;;;0.60;;
19794;SDS011;10057;59.402;17.866;2022-08-21T15:26:41;1.00;;;0.60;;
19794;SDS011;10057;59.402;17.866;2022-08-21T15:29:09;2.50;;;0.80;;
19794;SDS011;10057;59.402;17.866;2022-08-21T15:31:35;2.67;;;0.88;;
19794;SDS011;10057;59.402;17.866;2022-08-21T15:34:02;3.50;;;0.77;;
19794;SDS011;10057;59.402;17.866;2022-08-21T15:36:29;1.23;;;0.57;;
19794;SDS011;10057;59.402;17.866;2022-08-21T15:38:55;2.50;;;0.80;;
19794;SDS011;10057;59.402;17.866;2022-08-21T15:41:22;3.42;;;0.70;;
19794;SDS011;10057;59.402;17.866;2022-08-21T15:43:50;3.42;;;0.70;;
19794;SDS011;10057;59.402;17.866;2022-08-21T15:46:22;1.98;;;0.70;;
19794;SDS011;10057;59.402;17.866;2022-08-21T15:48:49;1.95;;;0.80;;
19794;SDS011;10057;59.402;17.866;2022-08-21T15:51:22;2.92;;;0.70;;
19794;SDS011;10057;59.402;17.866;2022-08-21T15:53:52;3.50;;;0.88;;
19794;SDS011;10057;59.402;17.866;2022-08-21T15:56:23;2.42;;;0.95;;
19794;SDS011;10057;59.402;17.866;2022-08-21T15:59:02;3.60;;;0.80;;
19794;SDS011;10057;59.402;17.866;2022-08-21T16:01:34;2.38;;;0.82;;
19794;SDS011;10057;59.402;17.866;2022-08-21T16:07:09;2.00;;;0.70;;
19794;SDS011;10057;59.402;17.866;2022-08-21T16:09:39;3.25;;;0.90;;
19794;SDS011;10057;59.402;17.866;2022-08-21T16:12:11;1.05;;;0.60;;
19794;SDS011;10057;59.402;17.866;2022-08-21T16:14:46;2.10;;;0.73;;
19794;SDS011;10057;59.402;17.866;2022-08-21T16:17:13;2.35;;;1.00;;
19794;SDS011;10057;59.402;17.866;2022-08-21T16:19:39;3.47;;;0.85;;
19794;SDS011;10057;59.402;17.866;2022-08-21T16:22:06;3.85;;;0.80;;
19794;SDS011;10057;59.402;17.866;2022-08-21T16:24:33;2.22;;;0.82;;
19794;SDS011;10057;59.402;17.866;2022-08-21T16:27:01;2.78;;;1.08;;
19794;SDS011;10057;59.402;17.866;2022-08-21T16:29:34;1.35;;;0.80;;
19794;SDS011;10057;59.402;17.866;2022-08-21T16:32:06;2.38;;;1.00;;